sensor_id;sensor_type;location;lat;lon;timestamp;pressure;altitude;pressure_sealevel;temperature;humidity
21234;BME280;10774;42.178;26.578;2023-07-31T00:01:00;99396.47;;;22.30;65.80
21234;BME280;10774;42.178;26.578;2023-07-31T00:03:25;99404.22;;;22.03;67.65
21234;BME280;10774;42.178;26.578;2023-07-31T00:05:50;99397.81;;;21.96;68.28
21234;BME280;10774;42.178;26.578;2023-07-31T00:08:16;99411.59;;;22.03;69.09
21234;BME280;10774;42.178;26.578;2023-07-31T00:10:41;99413.47;;;20.63;78.23
21234;BME280;10774;42.178;26.578;2023-07-31T00:13:07;99413.91;;;19.95;87.62
21234;BME280;10774;42.178;26.578;2023-07-31T00:15:32;99403.34;;;20.80;82.72
21234;BME280;10774;42.178;26.578;2023-07-31T00:17:57;99421.16;;;20.99;79.51
21234;BME280;10774;42.178;26.578;2023-07-31T00:20:23;99411.69;;;19.74;86.69
21234;BME280;10774;42.178;26.578;2023-07-31T00:22:48;99415.94;;;19.93;87.68
21234;BME280;10774;42.178;26.578;2023-07-31T00:25:14;99422.19;;;20.34;83.13
21234;BME280;10774;42.178;26.578;2023-07-31T00:27:39;99425.22;;;20.63;81.67
21234;BME280;10774;42.178;26.578;2023-07-31T00:30:10;99405.03;;;21.20;78.22
21234;BME280;10774;42.178;26.578;2023-07-31T00:32:35;99392.69;;;21.55;76.15
21234;BME280;10774;42.178;26.578;2023-07-31T00:35:01;99385.50;;;21.77;74.13
21234;BME280;10774;42.178;26.578;2023-07-31T00:37:27;99377.75;;;21.66;72.93
21234;BME280;10774;42.178;26.578;2023-07-31T00:39:52;99388.19;;;21.85;71.70
21234;BME280;10774;42.178;26.578;2023-07-31T00:42:18;99377.94;;;21.42;74.09
21234;BME280;10774;42.178;26.578;2023-07-31T00:44:43;99375.91;;;21.35;74.17
21234;BME280;10774;42.178;26.578;2023-07-31T00:47:08;99391.00;;;21.54;74.32
21234;BME280;10774;42.178;26.578;2023-07-31T00:49:34;99409.53;;;20.66;78.93
21234;BME280;10774;42.178;26.578;2023-07-31T00:52:00;99407.94;;;19.91;84.36
21234;BME280;10774;42.178;26.578;2023-07-31T00:54:25;99426.81;;;19.60;89.26
21234;BME280;10774;42.178;26.578;2023-07-31T00:56:52;99422.53;;;19.41;92.43
21234;BME280;10774;42.178;26.578;2023-07-31T00:59:18;99425.09;;;18.92;100.00
21234;BME280;10774;42.178;26.578;2023-07-31T01:01:44;99442.13;;;18.94;100.00
21234;BME280;10774;42.178;26.578;2023-07-31T01:04:10;99431.97;;;19.04;100.00
21234;BME280;10774;42.178;26.578;2023-07-31T01:11:53;99412.66;;;20.30;100.00
21234;BME280;10774;42.178;26.578;2023-07-31T01:14:20;99424.56;;;19.55;100.00
21234;BME280;10774;42.178;26.578;2023-07-31T01:16:46;99419.47;;;19.52;100.00
21234;BME280;10774;42.178;26.578;2023-07-31T01:19:12;99426.00;;;19.84;100.00
21234;BME280;10774;42.178;26.578;2023-07-31T01:22:00;99421.91;;;19.64;100.00
21234;BME280;10774;42.178;26.578;2023-07-31T01:25:05;99419.38;;;19.62;100.00
21234;BME280;10774;42.178;26.578;2023-07-31T01:27:24;99402.78;;;20.29;100.00
21234;BME280;10774;42.178;26.578;2023-07-31T01:32:19;99385.22;;;21.18;100.00
21234;BME280;10774;42.178;26.578;2023-07-31T01:34:45;99383.66;;;21.24;97.89
21234;BME280;10774;42.178;26.578;2023-07-31T01:37:11;99395.72;;;21.37;95.94
21234;BME280;10774;42.178;26.578;2023-07-31T01:39:37;99398.16;;;20.54;100.00
21234;BME280;10774;42.178;26.578;2023-07-31T01:42:02;99407.03;;;20.95;100.00
21234;BME280;10774;42.178;26.578;2023-07-31T01:44:27;99408.22;;;21.24;96.93
21234;BME280;10774;42.178;26.578;2023-07-31T01:46:53;99389.84;;;21.49;94.93
21234;BME280;10774;42.178;26.578;2023-07-31T01:49:18;99382.75;;;21.62;93.76
21234;BME280;10774;42.178;26.578;2023-07-31T01:51:44;99382.75;;;21.62;91.12
21234;BME280;10774;42.178;26.578;2023-07-31T01:54:09;99365.38;;;21.55;89.47
21234;BME280;10774;42.178;26.578;2023-07-31T01:56:35;99364.78;;;21.45;87.95
21234;BME280;10774;42.178;26.578;2023-07-31T01:59:00;99372.91;;;21.53;84.83
21234;BME280;10774;42.178;26.578;2023-07-31T02:01:25;99382.97;;;21.76;82.58
21234;BME280;10774;42.178;26.578;2023-07-31T02:03:51;99387.59;;;21.52;83.49
21234;BME280;10774;42.178;26.578;2023-07-31T02:06:16;99397.09;;;21.56;82.46
21234;BME280;10774;42.178;26.578;2023-07-31T02:08:42;99390.50;;;21.51;82.42
21234;BME280;10774;42.178;26.578;2023-07-31T02:11:07;99392.75;;;21.47;81.08
21234;BME280;10774;42.178;26.578;2023-07-31T02:13:32;99381.75;;;21.55;80.15
21234;BME280;10774;42.178;26.578;2023-07-31T02:15:58;99394.50;;;21.40;80.80
21234;BME280;10774;42.178;26.578;2023-07-31T02:18:23;99377.56;;;21.45;79.80
21234;BME280;10774;42.178;26.578;2023-07-31T02:20:50;99384.38;;;21.49;79.20
21234;BME280;10774;42.178;26.578;2023-07-31T02:23:17;99391.00;;;21.54;79.20
21234;BME280;10774;42.178;26.578;2023-07-31T02:25:43;99395.41;;;21.55;79.75
21234;BME280;10774;42.178;26.578;2023-07-31T02:28:08;99394.22;;;21.27;80.31
21234;BME280;10774;42.178;26.578;2023-07-31T02:30:34;99399.94;;;20.78;83.21
21234;BME280;10774;42.178;26.578;2023-07-31T02:32:59;99396.47;;;20.28;86.88
21234;BME280;10774;42.178;26.578;2023-07-31T02:35:24;99417.75;;;20.49;87.51
21234;BME280;10774;42.178;26.578;2023-07-31T02:37:50;99422.03;;;20.91;85.11
21234;BME280;10774;42.178;26.578;2023-07-31T02:40:15;99402.53;;;21.02;84.22
21234;BME280;10774;42.178;26.578;2023-07-31T02:42:41;99415.75;;;20.91;84.67
21234;BME280;10774;42.178;26.578;2023-07-31T02:45:07;99414.94;;;21.13;83.43
21234;BME280;10774;42.178;26.578;2023-07-31T02:47:32;99412.06;;;21.14;82.48
21234;BME280;10774;42.178;26.578;2023-07-31T02:49:57;99395.53;;;21.08;82.11
21234;BME280;10774;42.178;26.578;2023-07-31T02:52:24;99408.41;;;20.91;83.55
21234;BME280;10774;42.178;26.578;2023-07-31T02:54:50;99404.06;;;20.74;84.76
21234;BME280;10774;42.178;26.578;2023-07-31T02:57:15;99411.88;;;20.77;84.97
21234;BME280;10774;42.178;26.578;2023-07-31T02:59:41;99419.69;;;20.88;84.58
21234;BME280;10774;42.178;26.578;2023-07-31T03:02:06;99404.25;;;20.72;83.64
21234;BME280;10774;42.178;26.578;2023-07-31T03:04:32;99408.78;;;20.80;84.05
21234;BME280;10774;42.178;26.578;2023-07-31T03:06:57;99425.09;;;20.41;85.80
21234;BME280;10774;42.178;26.578;2023-07-31T03:09:23;99415.16;;;20.56;85.78
21234;BME280;10774;42.178;26.578;2023-07-31T03:11:48;99395.19;;;20.72;85.79
21234;BME280;10774;42.178;26.578;2023-07-31T03:14:14;99403.00;;;20.83;85.56
21234;BME280;10774;42.178;26.578;2023-07-31T03:16:39;99397.88;;;20.80;84.90
21234;BME280;10774;42.178;26.578;2023-07-31T03:19:04;99395.53;;;20.69;85.54
21234;BME280;10774;42.178;26.578;2023-07-31T03:21:30;99406.16;;;20.39;87.60
21234;BME280;10774;42.178;26.578;2023-07-31T03:23:55;99406.88;;;20.33;88.47
21234;BME280;10774;42.178;26.578;2023-07-31T03:26:21;99407.56;;;20.51;87.77
21234;BME280;10774;42.178;26.578;2023-07-31T03:28:46;99417.75;;;20.41;89.12
21234;BME280;10774;42.178;26.578;2023-07-31T03:31:12;99407.94;;;20.16;92.11
21234;BME280;10774;42.178;26.578;2023-07-31T03:33:37;99412.69;;;20.46;90.03
21234;BME280;10774;42.178;26.578;2023-07-31T03:36:03;99414.97;;;20.66;89.54
21234;BME280;10774;42.178;26.578;2023-07-31T03:38:29;99422.38;;;20.49;90.15
21234;BME280;10774;42.178;26.578;2023-07-31T03:40:54;99424.44;;;20.14;95.01
21234;BME280;10774;42.178;26.578;2023-07-31T03:43:20;99415.03;;;20.33;93.20
21234;BME280;10774;42.178;26.578;2023-07-31T03:45:45;99428.63;;;20.66;90.79
21234;BME280;10774;42.178;26.578;2023-07-31T03:48:11;99419.00;;;20.86;88.66
21234;BME280;10774;42.178;26.578;2023-07-31T03:50:36;99420.25;;;21.06;87.65
21234;BME280;10774;42.178;26.578;2023-07-31T03:53:01;99419.50;;;20.18;94.51
21234;BME280;10774;42.178;26.578;2023-07-31T03:55:27;99411.19;;;20.75;91.82
21234;BME280;10774;42.178;26.578;2023-07-31T03:57:52;99419.88;;;21.18;88.54
21234;BME280;10774;42.178;26.578;2023-07-31T04:00:18;99417.16;;;20.78;89.21
21234;BME280;10774;42.178;26.578;2023-07-31T04:02:43;99417.22;;;21.01;88.14
21234;BME280;10774;42.178;26.578;2023-07-31T04:05:09;99425.19;;;21.11;88.33
21234;BME280;10774;42.178;26.578;2023-07-31T04:07:34;99420.53;;;21.20;87.68
21234;BME280;10774;42.178;26.578;2023-07-31T04:10:00;99427.72;;;21.21;87.14
21234;BME280;10774;42.178;26.578;2023-07-31T04:12:25;99435.59;;;21.15;88.99
21234;BME280;10774;42.178;26.578;2023-07-31T04:14:51;99424.69;;;20.68;93.78
21234;BME280;10774;42.178;26.578;2023-07-31T04:17:19;99419.44;;;20.98;92.60
21234;BME280;10774;42.178;26.578;2023-07-31T04:19:44;99414.38;;;21.26;88.33
21234;BME280;10774;42.178;26.578;2023-07-31T04:22:10;99419.34;;;21.53;86.55
21234;BME280;10774;42.178;26.578;2023-07-31T04:24:35;99414.69;;;21.62;86.04
21234;BME280;10774;42.178;26.578;2023-07-31T04:27:01;99424.94;;;21.98;85.58
21234;BME280;10774;42.178;26.578;2023-07-31T04:29:26;99424.56;;;22.24;83.77
21234;BME280;10774;42.178;26.578;2023-07-31T04:31:51;99419.19;;;22.30;82.74
21234;BME280;10774;42.178;26.578;2023-07-31T04:34:17;99405.91;;;22.12;82.56
21234;BME280;10774;42.178;26.578;2023-07-31T04:36:42;99416.00;;;22.27;83.18
21234;BME280;10774;42.178;26.578;2023-07-31T04:39:07;99421.66;;;22.02;83.51
21234;BME280;10774;42.178;26.578;2023-07-31T04:41:33;99410.91;;;22.24;83.19
21234;BME280;10774;42.178;26.578;2023-07-31T04:43:58;99418.28;;;22.38;82.63
21234;BME280;10774;42.178;26.578;2023-07-31T04:46:24;99425.94;;;22.57;81.61
21234;BME280;10774;42.178;26.578;2023-07-31T04:48:49;99418.56;;;22.43;81.95
21234;BME280;10774;42.178;26.578;2023-07-31T04:51:15;99425.56;;;22.60;81.59
21234;BME280;10774;42.178;26.578;2023-07-31T04:53:41;99426.22;;;22.62;80.86
21234;BME280;10774;42.178;26.578;2023-07-31T04:56:06;99413.38;;;22.78;80.58
21234;BME280;10774;42.178;26.578;2023-07-31T04:58:32;99427.63;;;23.17;78.04
21234;BME280;10774;42.178;26.578;2023-07-31T05:01:00;99432.09;;;23.40;75.83
21234;BME280;10774;42.178;26.578;2023-07-31T05:03:25;99429.78;;;23.58;74.89
21234;BME280;10774;42.178;26.578;2023-07-31T05:05:51;99433.41;;;23.80;73.86
21234;BME280;10774;42.178;26.578;2023-07-31T05:08:16;99439.41;;;23.90;73.75
21234;BME280;10774;42.178;26.578;2023-07-31T05:10:43;99431.47;;;24.02;72.48
21234;BME280;10774;42.178;26.578;2023-07-31T05:13:08;99429.06;;;24.14;72.22
21234;BME280;10774;42.178;26.578;2023-07-31T05:15:33;99434.34;;;24.37;70.91
21234;BME280;10774;42.178;26.578;2023-07-31T05:17:59;99431.03;;;24.48;70.15
21234;BME280;10774;42.178;26.578;2023-07-31T05:20:24;99444.47;;;24.71;69.24
21234;BME280;10774;42.178;26.578;2023-07-31T05:22:50;99437.78;;;24.80;68.97
21234;BME280;10774;42.178;26.578;2023-07-31T05:25:16;99442.75;;;24.35;70.66
21234;BME280;10774;42.178;26.578;2023-07-31T05:27:41;99447.75;;;23.82;74.23
21234;BME280;10774;42.178;26.578;2023-07-31T05:30:07;99429.44;;;23.10;80.48
21234;BME280;10774;42.178;26.578;2023-07-31T05:32:33;99447.91;;;23.59;79.60
21234;BME280;10774;42.178;26.578;2023-07-31T05:34:58;99454.41;;;23.37;81.51
21234;BME280;10774;42.178;26.578;2023-07-31T05:37:24;99463.50;;;23.59;79.64
21234;BME280;10774;42.178;26.578;2023-07-31T05:39:49;99476.94;;;23.54;79.17
21234;BME280;10774;42.178;26.578;2023-07-31T05:42:15;99479.53;;;23.62;79.90
21234;BME280;10774;42.178;26.578;2023-07-31T05:44:40;99479.88;;;23.52;81.01
21234;BME280;10774;42.178;26.578;2023-07-31T05:47:05;99481.56;;;23.89;81.18
21234;BME280;10774;42.178;26.578;2023-07-31T05:49:31;99480.19;;;24.21;79.54
21234;BME280;10774;42.178;26.578;2023-07-31T05:51:56;99483.31;;;23.97;82.38
21234;BME280;10774;42.178;26.578;2023-07-31T05:54:22;99491.44;;;24.05;82.11
21234;BME280;10774;42.178;26.578;2023-07-31T05:56:49;99500.00;;;23.44;85.24
21234;BME280;10774;42.178;26.578;2023-07-31T05:59:15;99496.75;;;22.90;89.63
21234;BME280;10774;42.178;26.578;2023-07-31T06:01:41;99495.63;;;22.99;91.62
21234;BME280;10774;42.178;26.578;2023-07-31T06:04:06;99510.50;;;23.77;86.71
21234;BME280;10774;42.178;26.578;2023-07-31T06:06:32;99513.41;;;24.33;82.04
21234;BME280;10774;42.178;26.578;2023-07-31T06:08:57;99490.34;;;24.77;79.24
21234;BME280;10774;42.178;26.578;2023-07-31T06:11:23;99506.00;;;25.11;75.67
21234;BME280;10774;42.178;26.578;2023-07-31T06:13:48;99505.63;;;24.93;74.36
21234;BME280;10774;42.178;26.578;2023-07-31T06:16:15;99509.66;;;25.25;71.60
21234;BME280;10774;42.178;26.578;2023-07-31T06:18:41;99510.59;;;24.48;73.10
21234;BME280;10774;42.178;26.578;2023-07-31T06:21:07;99519.53;;;24.85;72.62
21234;BME280;10774;42.178;26.578;2023-07-31T06:23:32;99499.22;;;24.79;70.27
21234;BME280;10774;42.178;26.578;2023-07-31T06:25:58;99515.72;;;25.55;65.39
21234;BME280;10774;42.178;26.578;2023-07-31T06:28:31;99515.44;;;25.85;64.05
21234;BME280;10774;42.178;26.578;2023-07-31T06:30:57;99521.09;;;25.76;62.44
21234;BME280;10774;42.178;26.578;2023-07-31T06:33:23;99523.25;;;25.40;66.36
21234;BME280;10774;42.178;26.578;2023-07-31T06:35:49;99526.88;;;26.01;63.18
21234;BME280;10774;42.178;26.578;2023-07-31T06:38:14;99519.25;;;25.90;62.26
21234;BME280;10774;42.178;26.578;2023-07-31T06:40:39;99530.66;;;25.87;61.23
21234;BME280;10774;42.178;26.578;2023-07-31T06:43:05;99524.25;;;25.73;61.97
21234;BME280;10774;42.178;26.578;2023-07-31T06:45:51;99535.16;;;26.08;60.69
21234;BME280;10774;42.178;26.578;2023-07-31T06:48:18;99531.16;;;26.24;61.62
21234;BME280;10774;42.178;26.578;2023-07-31T06:50:44;99525.91;;;26.49;60.38
21234;BME280;10774;42.178;26.578;2023-07-31T06:53:09;99526.91;;;26.41;60.19
21234;BME280;10774;42.178;26.578;2023-07-31T06:55:35;99524.16;;;26.41;61.61
21234;BME280;10774;42.178;26.578;2023-07-31T06:58:00;99519.34;;;26.50;61.88
21234;BME280;10774;42.178;26.578;2023-07-31T07:00:26;99537.53;;;26.97;60.55
21234;BME280;10774;42.178;26.578;2023-07-31T07:02:52;99530.63;;;27.53;58.37
21234;BME280;10774;42.178;26.578;2023-07-31T07:05:17;99537.44;;;27.44;57.62
21234;BME280;10774;42.178;26.578;2023-07-31T07:07:43;99534.75;;;27.04;58.03
21234;BME280;10774;42.178;26.578;2023-07-31T07:10:09;99537.88;;;27.47;57.89
21234;BME280;10774;42.178;26.578;2023-07-31T07:12:35;99538.75;;;27.28;57.40
21234;BME280;10774;42.178;26.578;2023-07-31T07:15:01;99541.59;;;26.55;59.76
21234;BME280;10774;42.178;26.578;2023-07-31T07:17:28;99534.50;;;27.25;58.96
21234;BME280;10774;42.178;26.578;2023-07-31T07:19:56;99541.59;;;26.75;61.47
21234;BME280;10774;42.178;26.578;2023-07-31T07:22:22;99547.69;;;26.97;61.03
21234;BME280;10774;42.178;26.578;2023-07-31T07:24:47;99543.38;;;27.47;60.24
21234;BME280;10774;42.178;26.578;2023-07-31T07:27:13;99536.84;;;27.86;58.97
21234;BME280;10774;42.178;26.578;2023-07-31T07:29:38;99534.81;;;26.64;61.32
21234;BME280;10774;42.178;26.578;2023-07-31T07:32:04;99541.78;;;26.87;61.68
21234;BME280;10774;42.178;26.578;2023-07-31T07:34:30;99559.88;;;27.54;59.58
21234;BME280;10774;42.178;26.578;2023-07-31T07:36:55;99555.63;;;27.58;57.60
21234;BME280;10774;42.178;26.578;2023-07-31T07:39:21;99550.00;;;27.91;55.58
21234;BME280;10774;42.178;26.578;2023-07-31T07:41:46;99562.75;;;26.88;58.24
21234;BME280;10774;42.178;26.578;2023-07-31T07:44:13;99568.91;;;27.16;58.77
21234;BME280;10774;42.178;26.578;2023-07-31T07:46:39;99561.69;;;26.49;62.05
21234;BME280;10774;42.178;26.578;2023-07-31T07:49:04;99570.72;;;26.29;62.59
21234;BME280;10774;42.178;26.578;2023-07-31T07:51:29;99567.97;;;26.23;61.37
21234;BME280;10774;42.178;26.578;2023-07-31T07:53:59;99581.75;;;25.68;62.41
21234;BME280;10774;42.178;26.578;2023-07-31T07:56:26;99575.13;;;25.56;61.15
21234;BME280;10774;42.178;26.578;2023-07-31T07:58:52;99567.78;;;25.70;60.70
21234;BME280;10774;42.178;26.578;2023-07-31T08:01:17;99581.00;;;25.88;60.51
21234;BME280;10774;42.178;26.578;2023-07-31T08:03:43;99567.69;;;25.91;60.13
21234;BME280;10774;42.178;26.578;2023-07-31T08:06:09;99572.09;;;25.79;59.10
21234;BME280;10774;42.178;26.578;2023-07-31T08:08:38;99558.69;;;25.21;61.34
21234;BME280;10774;42.178;26.578;2023-07-31T08:11:03;99551.56;;;25.34;60.83
21234;BME280;10774;42.178;26.578;2023-07-31T08:13:29;99571.25;;;25.44;60.34
21234;BME280;10774;42.178;26.578;2023-07-31T08:15:54;99570.50;;;25.22;61.37
21234;BME280;10774;42.178;26.578;2023-07-31T08:18:20;99560.00;;;25.32;62.25
21234;BME280;10774;42.178;26.578;2023-07-31T08:20:46;99552.25;;;25.42;63.09
21234;BME280;10774;42.178;26.578;2023-07-31T08:23:11;99561.44;;;25.69;63.25
21234;BME280;10774;42.178;26.578;2023-07-31T08:25:37;99547.31;;;25.03;64.59
21234;BME280;10774;42.178;26.578;2023-07-31T08:28:05;99561.00;;;24.96;65.52
21234;BME280;10774;42.178;26.578;2023-07-31T08:30:31;99562.00;;;25.10;66.92
21234;BME280;10774;42.178;26.578;2023-07-31T08:32:58;99559.63;;;25.07;66.08
21234;BME280;10774;42.178;26.578;2023-07-31T08:35:24;99561.47;;;25.00;66.61
21234;BME280;10774;42.178;26.578;2023-07-31T08:37:50;99553.75;;;25.10;68.05
21234;BME280;10774;42.178;26.578;2023-07-31T08:40:16;99541.41;;;24.99;68.12
21234;BME280;10774;42.178;26.578;2023-07-31T08:42:45;99551.84;;;25.11;68.63
21234;BME280;10774;42.178;26.578;2023-07-31T08:45:14;99554.25;;;24.99;67.53
21234;BME280;10774;42.178;26.578;2023-07-31T08:47:43;99541.38;;;24.71;68.88
21234;BME280;10774;42.178;26.578;2023-07-31T08:50:12;99533.75;;;24.67;70.27
21234;BME280;10774;42.178;26.578;2023-07-31T08:52:38;99541.03;;;24.81;70.36
21234;BME280;10774;42.178;26.578;2023-07-31T08:55:05;99541.56;;;24.63;71.16
21234;BME280;10774;42.178;26.578;2023-07-31T08:57:31;99540.34;;;24.72;71.78
21234;BME280;10774;42.178;26.578;2023-07-31T08:59:59;99537.63;;;24.51;72.24
21234;BME280;10774;42.178;26.578;2023-07-31T09:02:31;99546.31;;;24.55;73.56
21234;BME280;10774;42.178;26.578;2023-07-31T09:04:59;99551.56;;;24.77;73.95
21234;BME280;10774;42.178;26.578;2023-07-31T09:07:24;99558.41;;;24.88;75.50
21234;BME280;10774;42.178;26.578;2023-07-31T09:09:50;99553.72;;;24.82;77.22
21234;BME280;10774;42.178;26.578;2023-07-31T09:12:16;99550.34;;;24.52;76.37
21234;BME280;10774;42.178;26.578;2023-07-31T09:14:42;99533.00;;;24.51;78.22
21234;BME280;10774;42.178;26.578;2023-07-31T09:17:09;99537.09;;;24.62;80.46
21234;BME280;10774;42.178;26.578;2023-07-31T09:19:36;99544.81;;;24.31;83.35
21234;BME280;10774;42.178;26.578;2023-07-31T09:22:07;99522.53;;;24.19;88.26
21234;BME280;10774;42.178;26.578;2023-07-31T09:24:33;99534.81;;;24.23;91.75
21234;BME280;10774;42.178;26.578;2023-07-31T09:27:00;99538.94;;;23.91;92.35
21234;BME280;10774;42.178;26.578;2023-07-31T09:29:27;99545.06;;;23.93;97.37
21234;BME280;10774;42.178;26.578;2023-07-31T09:31:54;99552.00;;;23.89;99.93
21234;BME280;10774;42.178;26.578;2023-07-31T09:34:21;99548.72;;;24.00;100.00
21234;BME280;10774;42.178;26.578;2023-07-31T09:36:53;99553.53;;;23.98;100.00
21234;BME280;10774;42.178;26.578;2023-07-31T09:39:18;99557.94;;;23.78;100.00
21234;BME280;10774;42.178;26.578;2023-07-31T09:41:48;99561.78;;;23.98;100.00
21234;BME280;10774;42.178;26.578;2023-07-31T09:44:18;99559.53;;;23.87;100.00
21234;BME280;10774;42.178;26.578;2023-07-31T09:46:43;99560.16;;;23.67;100.00
21234;BME280;10774;42.178;26.578;2023-07-31T09:49:13;99558.94;;;23.70;100.00
21234;BME280;10774;42.178;26.578;2023-07-31T09:51:40;99553.59;;;23.83;100.00
21234;BME280;10774;42.178;26.578;2023-07-31T09:54:16;99547.66;;;23.80;100.00
21234;BME280;10774;42.178;26.578;2023-07-31T09:56:46;99544.41;;;23.91;100.00
21234;BME280;10774;42.178;26.578;2023-07-31T09:59:17;99549.91;;;23.91;100.00
21234;BME280;10774;42.178;26.578;2023-07-31T10:01:45;99562.97;;;23.59;100.00
21234;BME280;10774;42.178;26.578;2023-07-31T10:04:12;99562.06;;;23.52;100.00
21234;BME280;10774;42.178;26.578;2023-07-31T10:06:39;99558.19;;;23.46;100.00
21234;BME280;10774;42.178;26.578;2023-07-31T10:09:07;99568.63;;;23.72;100.00
21234;BME280;10774;42.178;26.578;2023-07-31T10:11:43;99559.13;;;23.68;100.00
21234;BME280;10774;42.178;26.578;2023-07-31T10:14:10;99554.28;;;23.70;100.00
21234;BME280;10774;42.178;26.578;2023-07-31T10:16:38;99551.06;;;23.67;100.00
21234;BME280;10774;42.178;26.578;2023-07-31T10:19:04;99553.59;;;23.83;100.00
21234;BME280;10774;42.178;26.578;2023-07-31T10:21:31;99546.34;;;23.76;100.00
21234;BME280;10774;42.178;26.578;2023-07-31T10:24:04;99542.41;;;24.21;100.00
21234;BME280;10774;42.178;26.578;2023-07-31T10:26:31;99542.84;;;24.95;100.00
21234;BME280;10774;42.178;26.578;2023-07-31T10:28:58;99549.81;;;24.42;100.00
21234;BME280;10774;42.178;26.578;2023-07-31T10:31:24;99548.81;;;24.49;100.00
21234;BME280;10774;42.178;26.578;2023-07-31T10:33:52;99553.63;;;24.97;100.00
21234;BME280;10774;42.178;26.578;2023-07-31T10:36:19;99556.97;;;24.64;100.00
21234;BME280;10774;42.178;26.578;2023-07-31T10:38:46;99560.53;;;24.37;100.00
21234;BME280;10774;42.178;26.578;2023-07-31T10:41:14;99561.25;;;24.31;100.00
21234;BME280;10774;42.178;26.578;2023-07-31T10:43:39;99557.78;;;24.37;100.00
21234;BME280;10774;42.178;26.578;2023-07-31T10:46:12;99555.38;;;24.34;100.00
21234;BME280;10774;42.178;26.578;2023-07-31T10:48:39;99559.50;;;24.23;100.00
21234;BME280;10774;42.178;26.578;2023-07-31T10:51:08;99549.81;;;24.42;100.00
21234;BME280;10774;42.178;26.578;2023-07-31T10:53:35;99553.84;;;24.46;100.00
21234;BME280;10774;42.178;26.578;2023-07-31T10:56:05;99552.88;;;24.82;100.00
21234;BME280;10774;42.178;26.578;2023-07-31T10:58:32;99556.59;;;24.46;100.00
21234;BME280;10774;42.178;26.578;2023-07-31T11:01:04;99549.38;;;24.66;100.00
21234;BME280;10774;42.178;26.578;2023-07-31T11:03:46;99545.50;;;25.10;100.00
21234;BME280;10774;42.178;26.578;2023-07-31T11:06:13;99547.09;;;25.26;100.00
21234;BME280;10774;42.178;26.578;2023-07-31T11:08:44;99553.09;;;25.08;100.00
21234;BME280;10774;42.178;26.578;2023-07-31T11:11:12;99554.19;;;25.55;100.00
21234;BME280;10774;42.178;26.578;2023-07-31T11:13:48;99546.25;;;26.48;100.00
21234;BME280;10774;42.178;26.578;2023-07-31T11:16:14;99531.63;;;26.61;98.85
21234;BME280;10774;42.178;26.578;2023-07-31T11:18:42;99539.13;;;25.99;99.90
21234;BME280;10774;42.178;26.578;2023-07-31T11:21:15;99529.03;;;26.19;94.10
21234;BME280;10774;42.178;26.578;2023-07-31T11:23:41;99513.84;;;26.50;87.66
21234;BME280;10774;42.178;26.578;2023-07-31T11:26:10;99525.03;;;26.35;90.24
21234;BME280;10774;42.178;26.578;2023-07-31T11:28:35;99527.31;;;27.24;86.40
21234;BME280;10774;42.178;26.578;2023-07-31T11:31:02;99519.41;;;27.41;79.47
21234;BME280;10774;42.178;26.578;2023-07-31T11:33:28;99497.88;;;28.39;78.83
21234;BME280;10774;42.178;26.578;2023-07-31T11:35:53;99496.31;;;29.55;74.28
21234;BME280;10774;42.178;26.578;2023-07-31T11:38:23;99494.97;;;29.76;69.38
21234;BME280;10774;42.178;26.578;2023-07-31T11:40:49;99501.94;;;29.05;64.90
21234;BME280;10774;42.178;26.578;2023-07-31T11:43:15;99498.31;;;29.11;65.63
21234;BME280;10774;42.178;26.578;2023-07-31T11:45:51;99497.53;;;29.23;64.88
21234;BME280;10774;42.178;26.578;2023-07-31T11:50:47;99473.28;;;29.73;63.02
21234;BME280;10774;42.178;26.578;2023-07-31T11:53:15;99478.38;;;29.21;63.76
21234;BME280;10774;42.178;26.578;2023-07-31T11:55:41;99468.09;;;30.49;61.58
21234;BME280;10774;42.178;26.578;2023-07-31T11:58:06;99469.28;;;30.29;59.55
21234;BME280;10774;42.178;26.578;2023-07-31T12:00:32;99467.50;;;30.05;59.16
21234;BME280;10774;42.178;26.578;2023-07-31T12:02:58;99464.81;;;29.56;58.32
21234;BME280;10774;42.178;26.578;2023-07-31T12:05:23;99454.25;;;30.49;58.00
21234;BME280;10774;42.178;26.578;2023-07-31T12:07:53;99466.81;;;29.79;55.32
21234;BME280;10774;42.178;26.578;2023-07-31T12:10:32;99463.66;;;30.06;55.95
21234;BME280;10774;42.178;26.578;2023-07-31T12:13:06;99454.63;;;30.64;52.23
21234;BME280;10774;42.178;26.578;2023-07-31T12:15:38;99460.81;;;31.41;52.25
21234;BME280;10774;42.178;26.578;2023-07-31T12:18:12;99456.75;;;31.20;50.54
21234;BME280;10774;42.178;26.578;2023-07-31T12:20:43;99456.31;;;31.52;50.51
21234;BME280;10774;42.178;26.578;2023-07-31T12:23:17;99455.56;;;31.28;51.44
21234;BME280;10774;42.178;26.578;2023-07-31T12:25:43;99448.03;;;31.69;49.81
21234;BME280;10774;42.178;26.578;2023-07-31T12:28:08;99439.22;;;31.72;47.62
21234;BME280;10774;42.178;26.578;2023-07-31T12:30:39;99438.81;;;31.11;49.50
21234;BME280;10774;42.178;26.578;2023-07-31T12:33:06;99445.84;;;31.42;49.92
21234;BME280;10774;42.178;26.578;2023-07-31T12:35:36;99436.09;;;30.76;49.45
21234;BME280;10774;42.178;26.578;2023-07-31T12:38:02;99440.88;;;30.45;48.56
21234;BME280;10774;42.178;26.578;2023-07-31T12:40:28;99437.72;;;29.28;51.02
21234;BME280;10774;42.178;26.578;2023-07-31T12:42:54;99435.13;;;28.97;51.32
21234;BME280;10774;42.178;26.578;2023-07-31T12:45:19;99418.31;;;28.73;52.02
21234;BME280;10774;42.178;26.578;2023-07-31T12:47:46;99425.91;;;29.69;51.25
21234;BME280;10774;42.178;26.578;2023-07-31T12:50:11;99415.47;;;30.37;49.50
21234;BME280;10774;42.178;26.578;2023-07-31T12:52:37;99410.03;;;31.41;48.65
21234;BME280;10774;42.178;26.578;2023-07-31T12:55:02;99404.13;;;31.94;46.45